This site, now in its 22nd season, is a labour of love and fun from one of Ottawa's most avid time trialists and number crunchers. It adheres to and is permitted by the laws of Canada, promotes the objectives of every bicycle club whose results are shown, and is donated free of charge by myself for your enjoyment and usage. If you would like results from series you ride in to be shown here, give me (celia@drmath.ca) a shout!
NOTE that this site had to be quickly moved to a new server with a new version of Perl. Unfortunately the way of interacting with the web form has changed, so I'll have to do some reprogramming to get the buttons and search boxes working. Meanwhile the links work fine and you can always add query specifications into the URL! :-)


Index Page
ATT OTT WTT AATT CFCTT VVVTT
Help resultformat:
Case-sensitive

OBC Open TT Series - 2012-Jul-12 - 15km (Rockliffe Pkwy) (EvtFactor = 0.9397)

Ottawa Weather (18:00): Mostly Cloudy. Temperature: 32C, Humidity: 26%, Dew Point: 10C, Wind: S 17km/h, Pressure: 101.8kPa, Vis: 10km, Humidex: 33.
Ottawa Weather (19:00): Cloudy. Temperature: 31C, Humidity: 27%, Dew Point: 10C, Wind: SW 14km/h, Pressure: 101.8kPa, Vis: 10km, Humidex: 32.
Ottawa Weather (20:00): Cloudy. Temperature: 28C, Humidity: 33%, Dew Point: 11C, Wind: SW 8km/h, Pressure: 101.8kPa, Vis: 10km, Humidex: 30.



These results were posted on the OBC site circa 22:00 on 2012-Jul-16 and are available here for your added pleasure and analysis.

(Lest complaints about me just lazily sucking in the results surface, I wish to make it perfectly clear that I would look after the data entry. Historically, for the decade starting in 1998 I had all of the WTT series up within a few hours of the event, and likewise for the OTT series from 1999-2002 and again in 2006. More recently, I have written web software which can run from the start/finish lines to register, seed, calculate rider times from elapsed times and database the results immediately. The OBC Board however, not only won't let me volunteer here, but strangely enough they actually expelled me from the OBC for donating this time trial web site to you !)




 
 

BESTS?
 
1 Fillion, Aaron  OBC/RWR 18:30 48.649 1/65 U40M 1/9 0.9008
2 Dal-Cin, Matteo  RWR 19:37 45.879 2/65 U30M 1/4 1.0651
3 Proulx, Steve  CYC 19:38 45.840 3/65 U50M 1/16 1.0439
Rendall, Glen  RWR 19:38 45.840 3/65 U50M 1/16 0.9975
5 Sudac, Rick  OBC/RWR 20:07 44.739 5/65 U70M 1/7 0.9778
6 Katz, Joel  OBC/RWR 20:28 43.974 6/65 U60M 1/13 1.0073
7 Budgell, Glen  OBC 20:32 43.831 7/65 U60M 2/13 1.0221
8 Cornel, Logan  TTC 20:37 43.654 8/65 U30M 2/4 0.8836
9 Mullington, Chris WQW 20:53 43.097 9/65 U60M 3/13 1.0315
10 Christie, Greg  OBC/RWR 21:04 42.722 10/65 U60M 4/13 1.0336
11 Cameron, Allen  OBC/RWR 21:27 41.958 11/65 U60M 5/13 1.0306
12 Robitaille, Brian  OBC 21:35 41.699 12/65 U50M 3/16 1.0687
13 Dorego, Jean-Louis OBC 21:55 41.065 13/65 U70M 2/7 0.9729
14 Larson, Eric RWR 21:57 41.002 14/65 U50M 4/16 1.0509
15 Sylvestre-Williams, David OBC 22:03 40.816 15/65 U19M 1/1 1.0696
16 DeVidi, Robert  OBC 22:09 40.632 16/65 U50M 5/16  
17 Moerman, Bram  OBC 22:17 40.389 17/65 U70M 3/7 0.9733
18 Diotte, Daniel OBC 22:22 40.238 18/65 U50M 6/16  
19 Goedhuis, Neil OBC 22:26 40.119 19/65 U40M 2/9  
Page, Graham OBC/NTF 22:26 40.119 19/65 U30M 3/4 1.0338
21 Manjikian, Sevak OBC 22:32 39.941 21/65 U50M 7/16 0.9912
22 Deschamps, Martin WQW 22:54 39.301 22/65 U40M 3/9 1.0153
23 Nesdoly, Nina  OBC 23:04 39.017 23/65 U30F 1/2 0.9615
24 Drouin, Marcel OBC 23:09 38.877 24/65 U50M 8/16 0.9701
25 Courtman, David OBC 23:14 38.737 25/65 U60M 6/13 1.6583
26 Charlton, Christopher --- 23:19 38.599 26/65 U60M 7/13  
27 Carrier, Damien --- 23:21 38.544 27/65 U50M 9/16 1.1528
Morgan, Wesley 
(on a Recumbent bicycle)
OBC 23:21 38.544 27/65 U40M 4/9  
29 Reid, George OBC 23:33 38.217 29/65 U60M 8/13 0.9979
30 Redshaw, Russ  OBC 23:35 38.163 30/65 U60M 9/13 0.9790
31 Deavy, Carol  OBC 23:46 37.868 31/65 U50F 1/3 0.9647
32 Buffa, Alex  OBC 23:48 37.815 32/65 U50M 10/16  
33 Déry, Nicolas  OBC 23:49 37.789 33/65 U40M 5/9 1.0148
34 Basu, Ben  OBC 23:50 37.762 34/65 U50M 11/16  
Johnson, Byron  OBC 23:50 37.762 34/65 U70M 4/7 1.1153
36 Gilchrist, Ryan  OBC 23:51 37.736 36/65 U50M 12/16 1.0686
37 Harcourt, Douglas OBC 23:55 37.631 37/65 U40M 6/9 1.0510
38 Kramer, Mark OBC 24:02 37.448 38/65 U40M 7/9 0.9773
39 Langevin, Roger  OBC 24:04 37.396 39/65 U50M 13/16  
40 Bernard, Audrey --- 24:14 37.139 40/65 U30F 2/2  
Coudé, Martin --- 24:14 37.139 40/65 U30M 4/4 0.9177
42 Hull, Douglas OBC 24:17 37.062 42/65 U70M 5/7 1.0207
43 Imbrogno, Giorgio  OBC 24:22 36.936 43/65 U70M 6/7 0.9496
44 Coldwell, Michael  OBC 24:24 36.885 44/65 U60M 10/13  
45 Yardley, Jane  OBC 24:27 36.810 45/65 U40F 1/1 1.0478
46 Fenerty, Keith OBC 24:31 36.710 46/65 U50M 14/16 0.9538
47 Mroz, Geoff OBC 24:42 36.437 47/65 U40M 8/9 0.9040
48 Coney, Ingrid  OBC 24:45 36.364 48/65 U60F 1/3 1.0286
49 Ingham, Alison  OBC/RWR 24:47 36.315 49/65 U50F 2/3 0.9272
50 Liechti, Hans-Peter OBC 25:12 35.714 50/65 U60M 11/13 0.9822
51 Hall, David  OBC 25:27 35.363 51/65 U60M 12/13 0.8866
52 Burton, Myriam  OBC 25:32 35.248 52/65 U17F 1/1 1.0660
53 Dionne, Suzanne  --- 25:35 35.179 53/65 U60F 2/3  
54 King, Dustin --- 25:44 34.974 54/65 U17M 1/1 0.8248
55 Dal-Cin, Mauro EUR 26:01 34.593 55/65 U60M 13/13 1.0849
56 Georges, Patrick OBC 26:05 34.505 56/65 U50M 15/16 1.0627
57 Simpson, Bob OBC 26:07 34.461 57/65 U70M 7/7 1.1889
58 Ajersch, Mary  OBC 27:08 33.170 58/65 U80F 1/1 1.0000
59 McInnis, Celia  ABC/CYF 27:22 32.887 59/65 U60F 3/3 0.8283
60 Perkins, Cherylin  OBC 27:38 32.569 60/65 U50F 3/3 0.9874
61 St. John, Ronald OBC 28:22 31.727 61/65 U80M 1/1 1.0685
62 Robitaille, Devon  OBC 30:50 29.189 62/65 U15M 1/1 1.1039
63 LeBrun, Robert OBC 31:25 28.647 63/65 U40M 9/9 1.1328
64 Wright, Geoffrey  OBC 33:02 27.245 64/65 U90M 1/1 1.0137
65 Armstrong, Brian OBC DNF   65/65 U50M 16/16  
 
Average Speed of all of the above 64 finishes (960km in 25:24:51):37.774
>>>Average of the Average Speeds for these 64 finishes38.229<<<
 

The number of data records shown above is 65
The server processing of your query took: 1 wallclock secs ( 0.06 usr + 0.02 sys = 0.08 CPU)

Thanks to our Helpers: Michel Bernier, Leona Gray, Alex McKnight, Jess Raymond, Stephanie Rees, Gary Romkey, Peter Tregunno.

     


Apr 6 (Good Friday) Apr 16 (10km) Apr 23 (10km) (Canceled - Cold Drizzle) Apr 30 (10km)
May 1 (10km) May 3 May 7 (10km) May 8 (10km) May 10 May 14 (10km) May 15 May 15 (10km) May 17 May 22 May 22 (10km) May 24 May 28 (10km) May 29 May 29 (10km) May 31
Jun 3 (40km) Jun 4 (10km) Jun 5 Jun 5 Jun 7 Jun 11 (10km) Jun 12 Jun 12 Jun 14 Jun 18 (10km) Jun 19 Jun 19 Jun 21 Jun 25 (10km) Jun 26 Jun 26 Jun 28
Jul 2 (10km) Jul 3 Jul 3 Jul 5 Jul 8 (40km) Jul 9 Jul 10 Jul 10
  Jul 12  
Jul 16 Jul 17 Jul 17 Jul 19 Jul 22 (40km) Jul 23 (Cancelled - Thunderstorm) Jul 24 Jul 24 Jul 26 Jul 30 Jul 31 Jul 31
Aug 2 Aug 5 (40km) Aug 6 Aug 7 Aug 7 Aug 9 Aug 12 (40km) Aug 13 Aug 14 Aug 14 Aug 16 Aug 20 Aug 21 Aug 21 Aug 23 Aug 28 Aug 28 (Invitational) Aug 30
Sep 2 (40km) Sep 4 Sep 6 Sep 9 (40km) Sep 11 Sep 13 Sep 18 Sep 25

OTT Rankings
3 Best Speeds     3 Best Speeds by category
WTT Rankings for All Participants
4 Best Speeds (≥4 WTT, ≤1 10km)     4 Best Speeds (≥4 WTT, ≤1 10km) by category
OTT Best Three 15km Rankings
Overall     by category     age-Hcap Female   age-Hcap Male
[OWA]TT BAR Ranking
Overall     by category     Rider "Consistency-Graph"
ABC BAR Ranking
Overall     by category     Rider "Consistency-Graph"
Other years
TT Calculator All TT People All TT events
ABC Home VVV Home
CKAP GOLD MEDAL
Other Links

Please send your comments and suggestions to: Celia McInnis
Copyright © 1998-2021 Celia McInnis. All rights reserved. Links are welcomed.